Douglas, Michigan
Current Conditions -  °F | °C
As of 12:53 PM on Monday 24 Nov 2014 (Local Time) from KBIV Reporting Station
Heavy Rain Heavy Rain  
Wind Chill: 35°   Ceiling: 600
Heat Index: 45°   Visibility: 4mi
Dew Point: 42°   Wind: 33mph
Humidity: 90%   Direction: 230°SW
Pressure: 29.16"   Gusts: 38mph
Location:  42.64°N, 86.2°W
Report Text: KBIV 241753Z AUTO 23029G33KT 4SM +RA BR OVC006 07/06 A2916 RMK AO2 PK WND 23033/1752 PRESRR SLP876 P0012 60024 T00720056 10100 20072 53033
Loading
Personal Weather Stations






























Interactive Weather Map New forecast layout! Learn more

10-Day Weather Forecast

Advertisements
Track Severe Weather on mobile